Nichioh Maru — JD3267 — position and weather

sailwx.info

Track history (hours):
 
Tides and Currents Weather Stations Pressure Air Temp Water Temp Dewpoint Dewpoint Depression Visibility Wind Speed Wind Dir Waves Ship Positions

Nichioh Maru

Last reported at 2016-Sep-30 03:29 UTC. Time now 2016-Sep-30 08:22 UTC.
Position N 34°34' E 135°14'.

Length 170 m; draft 6.5 m.

Type: Cargo ship. MMSI: 431003232.

Date/timePositionNaut miles runAvg speedWind from/ knotsBaromVisibWave heightAir tempDewpointWater temp
2016-Sep-30 03:29N 34°34' E 135°14'  
2016-Sep-26 02:33N 34°37' E 135°13'4 3.4
2016-Sep-26 01:30N 34°41' E 135°13'0 0.0
2016-Sep-26 00:30N 34°41' E 135°13'14 4.6
2016-Sep-25 21:33N 34°28' E 135°07'162 6.0
2016-Sep-24 18:29N 34°32' E 138°24'9 7.0
2016-Sep-24 17:15N 34°31' E 138°34'6914.8
2016-Sep-24 12:33N 35°09' E 139°45'2110.5
2016-Sep-24 10:34N 35°30' E 139°46'0 0.0
2016-Sep-24 09:31N 35°30' E 139°46'0 0.0
2016-Sep-24 03:33N 35°30' E 139°46'5 5.4
2016-Sep-24 02:34N 35°25' E 139°46'8 8.4
2016-Sep-24 01:33N 35°19' E 139°39'0 0.0
2016-Sep-24 00:33N 35°19' E 139°39'82 8.7
2016-Sep-23 15:07N 34°23' E 138°27'  
2016-Sep-20 06:29N 34°34' E 134°49'  
Track history (hours):
 
Tides and Currents Weather Stations Pressure Air Temp Water Temp Dewpoint Dewpoint Depression Visibility Wind Speed Wind Dir Waves Ship Positions

Nichioh Maru

Last reported at 2016-Sep-30 03:29 UTC. Time now 2016-Sep-30 08:22 UTC.
Position N 34°34' E 135°14'.

Length 170 m; draft 6.5 m.

Type: Cargo ship. MMSI: 431003232.

Date/timePositionNaut miles runAvg speedWind from/ knotsBaromVisibWave heightAir tempDewpointWater temp
2016-Sep-30 03:29N 34°34' E 135°14'  
2016-Sep-26 02:33N 34°37' E 135°13'4 3.4
2016-Sep-26 01:30N 34°41' E 135°13'0 0.0
2016-Sep-26 00:30N 34°41' E 135°13'14 4.6
2016-Sep-25 21:33N 34°28' E 135°07'162 6.0
2016-Sep-24 18:29N 34°32' E 138°24'9 7.0
2016-Sep-24 17:15N 34°31' E 138°34'6914.8
2016-Sep-24 12:33N 35°09' E 139°45'2110.5
2016-Sep-24 10:34N 35°30' E 139°46'0 0.0
2016-Sep-24 09:31N 35°30' E 139°46'0 0.0
2016-Sep-24 03:33N 35°30' E 139°46'5 5.4
2016-Sep-24 02:34N 35°25' E 139°46'8 8.4
2016-Sep-24 01:33N 35°19' E 139°39'0 0.0
2016-Sep-24 00:33N 35°19' E 139°39'82 8.7
2016-Sep-23 15:07N 34°23' E 138°27'  
2016-Sep-20 06:29N 34°34' E 134°49'  

Dump ship's entire track history